Aviation Digital Data Service (ADDS)

Output produced by TAFs form (2353 UTC 19 October 2017)
found at http://aviationweather.gov/adds/tafs/
 
KMAF 192324Z 2000/2024 16012KT P6SM BKN100 BKN200 
     FM200900 17012KT P6SM OVC015 
     TEMPO 2012/2016 OVC005 
     FM201700 17014G22KT P6SM BKN200